sensor_id;sensor_type;location;lat;lon;timestamp;P1;durP1;ratioP1;P2;durP2;ratioP2
14143;SDS011;7152;48.348;10.980;2023-02-21T00:01:58;5.13;;;4.60;;
14143;SDS011;7152;48.348;10.980;2023-02-21T00:04:42;5.17;;;4.30;;
14143;SDS011;7152;48.348;10.980;2023-02-21T00:07:27;6.37;;;4.63;;
14143;SDS011;7152;48.348;10.980;2023-02-21T00:10:12;4.90;;;4.40;;
14143;SDS011;7152;48.348;10.980;2023-02-21T00:12:57;5.13;;;4.60;;
14143;SDS011;7152;48.348;10.980;2023-02-21T00:15:42;5.50;;;4.60;;
14143;SDS011;7152;48.348;10.980;2023-02-21T00:18:26;5.53;;;4.40;;
14143;SDS011;7152;48.348;10.980;2023-02-21T00:21:10;5.63;;;4.83;;
14143;SDS011;7152;48.348;10.980;2023-02-21T00:23:54;4.93;;;4.27;;
14143;SDS011;7152;48.348;10.980;2023-02-21T00:26:38;5.60;;;4.60;;
14143;SDS011;7152;48.348;10.980;2023-02-21T00:29:22;7.20;;;4.87;;
14143;SDS011;7152;48.348;10.980;2023-02-21T00:32:06;5.30;;;4.43;;
14143;SDS011;7152;48.348;10.980;2023-02-21T00:34:50;5.17;;;4.17;;
14143;SDS011;7152;48.348;10.980;2023-02-21T00:37:34;5.10;;;4.30;;
14143;SDS011;7152;48.348;10.980;2023-02-21T00:40:18;6.50;;;4.73;;
14143;SDS011;7152;48.348;10.980;2023-02-21T00:43:02;6.50;;;4.90;;
14143;SDS011;7152;48.348;10.980;2023-02-21T00:45:47;6.97;;;5.20;;
14143;SDS011;7152;48.348;10.980;2023-02-21T00:48:31;5.43;;;4.83;;
14143;SDS011;7152;48.348;10.980;2023-02-21T00:51:15;6.53;;;4.90;;
14143;SDS011;7152;48.348;10.980;2023-02-21T00:53:59;4.73;;;4.30;;
14143;SDS011;7152;48.348;10.980;2023-02-21T00:56:43;7.70;;;5.17;;
14143;SDS011;7152;48.348;10.980;2023-02-21T00:59:28;7.00;;;4.80;;
14143;SDS011;7152;48.348;10.980;2023-02-21T01:02:12;5.33;;;4.70;;
14143;SDS011;7152;48.348;10.980;2023-02-21T01:04:56;6.30;;;5.20;;
14143;SDS011;7152;48.348;10.980;2023-02-21T01:07:40;7.00;;;5.30;;
14143;SDS011;7152;48.348;10.980;2023-02-21T01:10:24;5.77;;;5.13;;
14143;SDS011;7152;48.348;10.980;2023-02-21T01:13:08;6.93;;;5.33;;
14143;SDS011;7152;48.348;10.980;2023-02-21T01:15:53;5.87;;;4.90;;
14143;SDS011;7152;48.348;10.980;2023-02-21T01:18:37;6.50;;;5.23;;
14143;SDS011;7152;48.348;10.980;2023-02-21T01:21:21;6.30;;;5.43;;
14143;SDS011;7152;48.348;10.980;2023-02-21T01:24:05;6.97;;;5.23;;
14143;SDS011;7152;48.348;10.980;2023-02-21T01:26:52;5.87;;;4.97;;
14143;SDS011;7152;48.348;10.980;2023-02-21T01:29:36;7.13;;;5.43;;
14143;SDS011;7152;48.348;10.980;2023-02-21T01:32:20;6.90;;;5.93;;
14143;SDS011;7152;48.348;10.980;2023-02-21T01:35:04;8.43;;;5.47;;
14143;SDS011;7152;48.348;10.980;2023-02-21T01:37:49;6.80;;;6.10;;
14143;SDS011;7152;48.348;10.980;2023-02-21T01:40:33;7.07;;;6.30;;
14143;SDS011;7152;48.348;10.980;2023-02-21T01:43:21;7.70;;;6.17;;
14143;SDS011;7152;48.348;10.980;2023-02-21T01:46:24;7.00;;;6.30;;
14143;SDS011;7152;48.348;10.980;2023-02-21T01:49:10;6.87;;;5.57;;
14143;SDS011;7152;48.348;10.980;2023-02-21T01:51:58;7.37;;;6.53;;
14143;SDS011;7152;48.348;10.980;2023-02-21T01:54:49;6.93;;;5.87;;
14143;SDS011;7152;48.348;10.980;2023-02-21T01:57:35;7.07;;;6.37;;
14143;SDS011;7152;48.348;10.980;2023-02-21T02:00:21;6.67;;;5.97;;
14143;SDS011;7152;48.348;10.980;2023-02-21T02:03:08;7.80;;;6.00;;
14143;SDS011;7152;48.348;10.980;2023-02-21T02:05:54;7.53;;;6.43;;
14143;SDS011;7152;48.348;10.980;2023-02-21T02:08:46;7.03;;;5.77;;
14143;SDS011;7152;48.348;10.980;2023-02-21T02:33:50;9.90;;;7.10;;
14143;SDS011;7152;48.348;10.980;2023-02-21T02:36:37;8.80;;;6.93;;
14143;SDS011;7152;48.348;10.980;2023-02-21T02:39:19;8.57;;;6.67;;
14143;SDS011;7152;48.348;10.980;2023-02-21T02:44:39;8.27;;;6.63;;
14143;SDS011;7152;48.348;10.980;2023-02-21T02:47:07;9.37;;;7.23;;
14143;SDS011;7152;48.348;10.980;2023-02-21T02:49:40;8.07;;;7.20;;
14143;SDS011;7152;48.348;10.980;2023-02-21T02:52:08;8.33;;;7.03;;
14143;SDS011;7152;48.348;10.980;2023-02-21T02:54:34;9.10;;;7.23;;
14143;SDS011;7152;48.348;10.980;2023-02-21T02:57:01;8.97;;;6.97;;
14143;SDS011;7152;48.348;10.980;2023-02-21T02:59:34;9.13;;;7.63;;
14143;SDS011;7152;48.348;10.980;2023-02-21T03:02:10;10.77;;;7.70;;
14143;SDS011;7152;48.348;10.980;2023-02-21T03:13:48;11.97;;;7.57;;
14143;SDS011;7152;48.348;10.980;2023-02-21T03:16:46;8.77;;;7.23;;
14143;SDS011;7152;48.348;10.980;2023-02-21T03:19:24;9.70;;;8.13;;
14143;SDS011;7152;48.348;10.980;2023-02-21T03:21:56;11.20;;;7.07;;
14143;SDS011;7152;48.348;10.980;2023-02-21T03:24:25;9.63;;;7.83;;
14143;SDS011;7152;48.348;10.980;2023-02-21T03:26:56;11.37;;;8.17;;
14143;SDS011;7152;48.348;10.980;2023-02-21T03:29:26;9.40;;;7.37;;
14143;SDS011;7152;48.348;10.980;2023-02-21T03:31:55;9.63;;;6.83;;
14143;SDS011;7152;48.348;10.980;2023-02-21T03:34:34;9.10;;;7.57;;
14143;SDS011;7152;48.348;10.980;2023-02-21T03:37:02;11.57;;;7.87;;
14143;SDS011;7152;48.348;10.980;2023-02-21T03:39:29;10.47;;;7.80;;
14143;SDS011;7152;48.348;10.980;2023-02-21T03:41:54;12.40;;;8.23;;
14143;SDS011;7152;48.348;10.980;2023-02-21T03:44:20;10.67;;;7.80;;
14143;SDS011;7152;48.348;10.980;2023-02-21T03:46:46;10.03;;;8.00;;
14143;SDS011;7152;48.348;10.980;2023-02-21T03:49:11;11.07;;;7.97;;
14143;SDS011;7152;48.348;10.980;2023-02-21T03:51:37;9.03;;;7.80;;
14143;SDS011;7152;48.348;10.980;2023-02-21T03:54:02;10.63;;;8.20;;
14143;SDS011;7152;48.348;10.980;2023-02-21T03:56:28;9.70;;;8.17;;
14143;SDS011;7152;48.348;10.980;2023-02-21T03:58:54;11.27;;;7.80;;
14143;SDS011;7152;48.348;10.980;2023-02-21T04:01:19;10.40;;;8.37;;
14143;SDS011;7152;48.348;10.980;2023-02-21T04:03:45;9.37;;;7.17;;
14143;SDS011;7152;48.348;10.980;2023-02-21T04:06:10;10.67;;;8.63;;
14143;SDS011;7152;48.348;10.980;2023-02-21T04:08:36;9.80;;;8.43;;
14143;SDS011;7152;48.348;10.980;2023-02-21T04:11:02;12.23;;;8.77;;
14143;SDS011;7152;48.348;10.980;2023-02-21T04:13:27;12.20;;;8.27;;
14143;SDS011;7152;48.348;10.980;2023-02-21T04:15:53;11.03;;;9.23;;
14143;SDS011;7152;48.348;10.980;2023-02-21T04:18:18;11.73;;;9.17;;
14143;SDS011;7152;48.348;10.980;2023-02-21T04:20:44;13.37;;;10.30;;
14143;SDS011;7152;48.348;10.980;2023-02-21T04:23:11;13.13;;;9.73;;
14143;SDS011;7152;48.348;10.980;2023-02-21T04:25:40;12.83;;;9.60;;
14143;SDS011;7152;48.348;10.980;2023-02-21T04:28:06;11.07;;;8.77;;
14143;SDS011;7152;48.348;10.980;2023-02-21T04:30:31;12.03;;;9.33;;
14143;SDS011;7152;48.348;10.980;2023-02-21T04:32:57;11.63;;;8.77;;
14143;SDS011;7152;48.348;10.980;2023-02-21T04:35:23;10.40;;;8.43;;
14143;SDS011;7152;48.348;10.980;2023-02-21T04:37:48;11.57;;;8.60;;
14143;SDS011;7152;48.348;10.980;2023-02-21T04:40:14;11.80;;;9.03;;
14143;SDS011;7152;48.348;10.980;2023-02-21T04:42:39;10.57;;;8.80;;
14143;SDS011;7152;48.348;10.980;2023-02-21T04:45:05;11.70;;;8.73;;
14143;SDS011;7152;48.348;10.980;2023-02-21T04:47:31;9.43;;;8.17;;
14143;SDS011;7152;48.348;10.980;2023-02-21T04:49:57;10.00;;;8.90;;
14143;SDS011;7152;48.348;10.980;2023-02-21T04:52:22;10.43;;;8.53;;
14143;SDS011;7152;48.348;10.980;2023-02-21T04:54:48;9.77;;;8.53;;
14143;SDS011;7152;48.348;10.980;2023-02-21T04:57:14;9.60;;;7.40;;
14143;SDS011;7152;48.348;10.980;2023-02-21T04:59:41;10.97;;;8.57;;
14143;SDS011;7152;48.348;10.980;2023-02-21T05:02:06;11.87;;;8.20;;
14143;SDS011;7152;48.348;10.980;2023-02-21T05:04:36;10.80;;;7.87;;
14143;SDS011;7152;48.348;10.980;2023-02-21T05:07:02;11.00;;;8.37;;
14143;SDS011;7152;48.348;10.980;2023-02-21T05:09:28;11.23;;;8.90;;
14143;SDS011;7152;48.348;10.980;2023-02-21T05:11:54;12.03;;;8.80;;
14143;SDS011;7152;48.348;10.980;2023-02-21T05:14:20;12.93;;;8.97;;
14143;SDS011;7152;48.348;10.980;2023-02-21T05:16:46;11.73;;;8.43;;
14143;SDS011;7152;48.348;10.980;2023-02-21T05:19:11;12.03;;;9.17;;
14143;SDS011;7152;48.348;10.980;2023-02-21T05:21:37;11.90;;;9.10;;
14143;SDS011;7152;48.348;10.980;2023-02-21T05:24:04;11.60;;;9.07;;
14143;SDS011;7152;48.348;10.980;2023-02-21T05:26:34;12.47;;;8.07;;
14143;SDS011;7152;48.348;10.980;2023-02-21T05:29:02;10.67;;;7.90;;
14143;SDS011;7152;48.348;10.980;2023-02-21T05:31:28;11.03;;;8.17;;
14143;SDS011;7152;48.348;10.980;2023-02-21T05:33:55;10.50;;;7.47;;
14143;SDS011;7152;48.348;10.980;2023-02-21T05:36:21;10.80;;;7.33;;
14143;SDS011;7152;48.348;10.980;2023-02-21T05:38:50;9.97;;;7.87;;
14143;SDS011;7152;48.348;10.980;2023-02-21T05:41:18;9.80;;;8.40;;
14143;SDS011;7152;48.348;10.980;2023-02-21T05:43:45;8.57;;;7.63;;
14143;SDS011;7152;48.348;10.980;2023-02-21T05:46:22;12.23;;;8.10;;
14143;SDS011;7152;48.348;10.980;2023-02-21T05:48:59;12.23;;;8.10;;
14143;SDS011;7152;48.348;10.980;2023-02-21T05:51:26;12.23;;;8.47;;
14143;SDS011;7152;48.348;10.980;2023-02-21T05:53:52;11.57;;;8.40;;
14143;SDS011;7152;48.348;10.980;2023-02-21T05:56:19;10.50;;;9.00;;
14143;SDS011;7152;48.348;10.980;2023-02-21T05:58:45;9.00;;;7.20;;
14143;SDS011;7152;48.348;10.980;2023-02-21T06:01:11;10.27;;;8.63;;
14143;SDS011;7152;48.348;10.980;2023-02-21T06:03:37;12.03;;;9.13;;
14143;SDS011;7152;48.348;10.980;2023-02-21T06:06:02;12.80;;;8.50;;
14143;SDS011;7152;48.348;10.980;2023-02-21T06:08:28;11.80;;;9.10;;
14143;SDS011;7152;48.348;10.980;2023-02-21T06:10:54;10.00;;;8.23;;
14143;SDS011;7152;48.348;10.980;2023-02-21T06:13:20;10.53;;;8.20;;
14143;SDS011;7152;48.348;10.980;2023-02-21T06:15:46;12.87;;;8.70;;
14143;SDS011;7152;48.348;10.980;2023-02-21T06:18:12;14.47;;;8.93;;
14143;SDS011;7152;48.348;10.980;2023-02-21T06:20:39;12.03;;;9.10;;
14143;SDS011;7152;48.348;10.980;2023-02-21T06:23:05;12.57;;;9.07;;
14143;SDS011;7152;48.348;10.980;2023-02-21T06:25:31;12.03;;;8.43;;
14143;SDS011;7152;48.348;10.980;2023-02-21T06:27:56;11.57;;;8.77;;
14143;SDS011;7152;48.348;10.980;2023-02-21T06:30:22;13.27;;;8.97;;
14143;SDS011;7152;48.348;10.980;2023-02-21T06:32:47;10.60;;;8.17;;
14143;SDS011;7152;48.348;10.980;2023-02-21T06:35:13;12.10;;;8.23;;
14143;SDS011;7152;48.348;10.980;2023-02-21T06:37:39;11.30;;;8.57;;
14143;SDS011;7152;48.348;10.980;2023-02-21T06:40:05;9.83;;;8.33;;
14143;SDS011;7152;48.348;10.980;2023-02-21T06:42:31;11.33;;;8.67;;
14143;SDS011;7152;48.348;10.980;2023-02-21T06:44:56;11.87;;;8.60;;
14143;SDS011;7152;48.348;10.980;2023-02-21T06:47:22;11.47;;;7.87;;
14143;SDS011;7152;48.348;10.980;2023-02-21T06:49:47;11.60;;;8.13;;
14143;SDS011;7152;48.348;10.980;2023-02-21T06:52:13;10.77;;;8.07;;
14143;SDS011;7152;48.348;10.980;2023-02-21T06:54:39;10.67;;;9.50;;
14143;SDS011;7152;48.348;10.980;2023-02-21T06:57:05;12.03;;;9.13;;
14143;SDS011;7152;48.348;10.980;2023-02-21T06:59:30;14.10;;;9.47;;
14143;SDS011;7152;48.348;10.980;2023-02-21T07:01:56;11.60;;;9.63;;
14143;SDS011;7152;48.348;10.980;2023-02-21T07:04:22;11.23;;;8.87;;
14143;SDS011;7152;48.348;10.980;2023-02-21T07:06:49;13.67;;;9.80;;
14143;SDS011;7152;48.348;10.980;2023-02-21T07:09:15;10.97;;;8.87;;
14143;SDS011;7152;48.348;10.980;2023-02-21T07:11:40;11.27;;;8.40;;
14143;SDS011;7152;48.348;10.980;2023-02-21T07:14:06;11.63;;;8.37;;
14143;SDS011;7152;48.348;10.980;2023-02-21T07:16:32;13.47;;;9.07;;
14143;SDS011;7152;48.348;10.980;2023-02-21T07:18:57;11.73;;;9.13;;
14143;SDS011;7152;48.348;10.980;2023-02-21T07:21:24;9.63;;;7.73;;
14143;SDS011;7152;48.348;10.980;2023-02-21T07:23:50;10.83;;;9.37;;
14143;SDS011;7152;48.348;10.980;2023-02-21T07:26:16;19.47;;;11.40;;
14143;SDS011;7152;48.348;10.980;2023-02-21T07:28:42;11.90;;;9.17;;
14143;SDS011;7152;48.348;10.980;2023-02-21T07:31:08;9.50;;;8.10;;
14143;SDS011;7152;48.348;10.980;2023-02-21T07:33:35;9.93;;;8.20;;
14143;SDS011;7152;48.348;10.980;2023-02-21T07:36:00;11.07;;;7.83;;
14143;SDS011;7152;48.348;10.980;2023-02-21T07:38:27;9.13;;;8.07;;
14143;SDS011;7152;48.348;10.980;2023-02-21T07:40:55;10.83;;;7.50;;
14143;SDS011;7152;48.348;10.980;2023-02-21T07:43:25;9.70;;;7.93;;
14143;SDS011;7152;48.348;10.980;2023-02-21T07:45:51;9.50;;;7.37;;
14143;SDS011;7152;48.348;10.980;2023-02-21T07:48:17;8.23;;;7.37;;
14143;SDS011;7152;48.348;10.980;2023-02-21T07:50:43;9.33;;;6.57;;
14143;SDS011;7152;48.348;10.980;2023-02-21T07:53:09;8.53;;;6.40;;
14143;SDS011;7152;48.348;10.980;2023-02-21T07:55:36;7.60;;;6.77;;
14143;SDS011;7152;48.348;10.980;2023-02-21T07:58:01;8.27;;;6.47;;
14143;SDS011;7152;48.348;10.980;2023-02-21T08:00:27;8.93;;;6.10;;
14143;SDS011;7152;48.348;10.980;2023-02-21T08:02:53;9.77;;;6.00;;
14143;SDS011;7152;48.348;10.980;2023-02-21T08:05:19;9.27;;;6.37;;
14143;SDS011;7152;48.348;10.980;2023-02-21T08:07:45;6.70;;;5.87;;
14143;SDS011;7152;48.348;10.980;2023-02-21T08:10:13;8.00;;;5.97;;
14143;SDS011;7152;48.348;10.980;2023-02-21T08:12:43;7.17;;;5.83;;
14143;SDS011;7152;48.348;10.980;2023-02-21T08:15:09;6.70;;;6.00;;
14143;SDS011;7152;48.348;10.980;2023-02-21T08:17:35;6.10;;;5.50;;
14143;SDS011;7152;48.348;10.980;2023-02-21T08:20:01;7.90;;;5.57;;
14143;SDS011;7152;48.348;10.980;2023-02-21T08:22:30;6.53;;;5.83;;
14143;SDS011;7152;48.348;10.980;2023-02-21T08:24:56;5.77;;;5.20;;
14143;SDS011;7152;48.348;10.980;2023-02-21T08:27:21;6.07;;;5.07;;
14143;SDS011;7152;48.348;10.980;2023-02-21T08:29:50;7.20;;;6.10;;
14143;SDS011;7152;48.348;10.980;2023-02-21T08:32:17;8.10;;;5.77;;
14143;SDS011;7152;48.348;10.980;2023-02-21T08:34:44;7.77;;;5.57;;
14143;SDS011;7152;48.348;10.980;2023-02-21T08:37:10;5.87;;;4.93;;
14143;SDS011;7152;48.348;10.980;2023-02-21T08:39:47;6.43;;;4.73;;
14143;SDS011;7152;48.348;10.980;2023-02-21T08:42:15;6.33;;;5.20;;
14143;SDS011;7152;48.348;10.980;2023-02-21T08:44:44;6.17;;;4.77;;
14143;SDS011;7152;48.348;10.980;2023-02-21T08:47:11;5.63;;;4.27;;
14143;SDS011;7152;48.348;10.980;2023-02-21T08:49:38;5.57;;;4.90;;
14143;SDS011;7152;48.348;10.980;2023-02-21T08:52:05;6.63;;;4.23;;
14143;SDS011;7152;48.348;10.980;2023-02-21T08:54:31;5.33;;;4.67;;
14143;SDS011;7152;48.348;10.980;2023-02-21T08:56:57;5.87;;;4.80;;
14143;SDS011;7152;48.348;10.980;2023-02-21T08:59:24;4.97;;;4.40;;
14143;SDS011;7152;48.348;10.980;2023-02-21T09:01:49;4.73;;;3.83;;
14143;SDS011;7152;48.348;10.980;2023-02-21T09:04:15;5.63;;;4.37;;
14143;SDS011;7152;48.348;10.980;2023-02-21T09:06:41;6.10;;;4.47;;
14143;SDS011;7152;48.348;10.980;2023-02-21T09:09:06;6.13;;;4.13;;
14143;SDS011;7152;48.348;10.980;2023-02-21T09:11:32;6.70;;;4.57;;
14143;SDS011;7152;48.348;10.980;2023-02-21T09:13:57;4.87;;;3.77;;
14143;SDS011;7152;48.348;10.980;2023-02-21T09:16:23;5.20;;;4.17;;
14143;SDS011;7152;48.348;10.980;2023-02-21T09:18:56;4.00;;;3.60;;
14143;SDS011;7152;48.348;10.980;2023-02-21T09:21:26;4.50;;;3.23;;
14143;SDS011;7152;48.348;10.980;2023-02-21T09:23:52;5.43;;;3.80;;
14143;SDS011;7152;48.348;10.980;2023-02-21T09:26:19;4.07;;;3.53;;
14143;SDS011;7152;48.348;10.980;2023-02-21T09:28:48;6.03;;;3.53;;
14143;SDS011;7152;48.348;10.980;2023-02-21T09:31:14;3.70;;;2.73;;
14143;SDS011;7152;48.348;10.980;2023-02-21T09:33:40;3.27;;;2.83;;
14143;SDS011;7152;48.348;10.980;2023-02-21T09:36:06;4.50;;;2.90;;
14143;SDS011;7152;48.348;10.980;2023-02-21T09:38:33;4.60;;;3.07;;
14143;SDS011;7152;48.348;10.980;2023-02-21T09:40:59;3.60;;;2.80;;
14143;SDS011;7152;48.348;10.980;2023-02-21T09:43:31;3.10;;;2.60;;
14143;SDS011;7152;48.348;10.980;2023-02-21T09:48:43;3.33;;;2.80;;
14143;SDS011;7152;48.348;10.980;2023-02-21T09:51:09;3.60;;;2.53;;
14143;SDS011;7152;48.348;10.980;2023-02-21T09:53:38;3.43;;;2.93;;
14143;SDS011;7152;48.348;10.980;2023-02-21T09:56:07;4.50;;;2.97;;
14143;SDS011;7152;48.348;10.980;2023-02-21T09:58:35;3.93;;;3.57;;
14143;SDS011;7152;48.348;10.980;2023-02-21T10:07:59;2.50;;;2.30;;
14143;SDS011;7152;48.348;10.980;2023-02-21T10:10:36;2.67;;;2.47;;
14143;SDS011;7152;48.348;10.980;2023-02-21T10:21:08;4.07;;;2.30;;
14143;SDS011;7152;48.348;10.980;2023-02-21T10:23:46;3.67;;;2.17;;
14143;SDS011;7152;48.348;10.980;2023-02-21T10:26:23;2.40;;;1.67;;
14143;SDS011;7152;48.348;10.980;2023-02-21T10:28:52;1.93;;;1.30;;
14143;SDS011;7152;48.348;10.980;2023-02-21T10:31:19;2.43;;;1.70;;
14143;SDS011;7152;48.348;10.980;2023-02-21T10:33:53;2.47;;;1.43;;
14143;SDS011;7152;48.348;10.980;2023-02-21T10:36:20;1.77;;;1.30;;
14143;SDS011;7152;48.348;10.980;2023-02-21T10:38:54;2.43;;;1.40;;
14143;SDS011;7152;48.348;10.980;2023-02-21T10:41:23;2.27;;;1.53;;
14143;SDS011;7152;48.348;10.980;2023-02-21T10:43:54;1.67;;;1.50;;
14143;SDS011;7152;48.348;10.980;2023-02-21T10:46:44;2.00;;;1.17;;
14143;SDS011;7152;48.348;10.980;2023-02-21T10:49:22;1.40;;;1.30;;
14143;SDS011;7152;48.348;10.980;2023-02-21T10:52:13;1.87;;;1.60;;
14143;SDS011;7152;48.348;10.980;2023-02-21T10:57:36;1.73;;;1.33;;
14143;SDS011;7152;48.348;10.980;2023-02-21T11:00:05;2.23;;;1.60;;
14143;SDS011;7152;48.348;10.980;2023-02-21T11:02:40;2.17;;;1.23;;
14143;SDS011;7152;48.348;10.980;2023-02-21T11:05:15;3.03;;;1.70;;
14143;SDS011;7152;48.348;10.980;2023-02-21T11:07:58;2.23;;;1.60;;
14143;SDS011;7152;48.348;10.980;2023-02-21T11:13:09;1.67;;;1.30;;
14143;SDS011;7152;48.348;10.980;2023-02-21T11:15:40;1.50;;;1.40;;
14143;SDS011;7152;48.348;10.980;2023-02-21T11:20:43;3.40;;;1.23;;
14143;SDS011;7152;48.348;10.980;2023-02-21T11:23:21;1.90;;;1.17;;
14143;SDS011;7152;48.348;10.980;2023-02-21T11:25:50;2.40;;;1.23;;
14143;SDS011;7152;48.348;10.980;2023-02-21T11:28:42;1.07;;;0.97;;
14143;SDS011;7152;48.348;10.980;2023-02-21T11:31:14;2.03;;;1.00;;
14143;SDS011;7152;48.348;10.980;2023-02-21T11:34:19;1.80;;;1.10;;
14143;SDS011;7152;48.348;10.980;2023-02-21T11:36:39;1.70;;;0.70;;
14143;SDS011;7152;48.348;10.980;2023-02-21T11:41:47;1.60;;;1.10;;
14143;SDS011;7152;48.348;10.980;2023-02-21T11:47:12;1.93;;;1.20;;
14143;SDS011;7152;48.348;10.980;2023-02-21T11:52:23;3.47;;;1.20;;
14143;SDS011;7152;48.348;10.980;2023-02-21T11:54:56;1.43;;;1.03;;
14143;SDS011;7152;48.348;10.980;2023-02-21T11:57:43;3.33;;;1.40;;
14143;SDS011;7152;48.348;10.980;2023-02-21T12:01:15;2.90;;;1.70;;
14143;SDS011;7152;48.348;10.980;2023-02-21T12:06:27;1.63;;;1.00;;
14143;SDS011;7152;48.348;10.980;2023-02-21T12:19:57;2.03;;;1.10;;
14143;SDS011;7152;48.348;10.980;2023-02-21T12:28:16;1.77;;;1.30;;
14143;SDS011;7152;48.348;10.980;2023-02-21T12:33:43;0.90;;;0.80;;
14143;SDS011;7152;48.348;10.980;2023-02-21T12:39:00;1.87;;;0.90;;
14143;SDS011;7152;48.348;10.980;2023-02-21T12:44:12;1.30;;;1.00;;
14143;SDS011;7152;48.348;10.980;2023-02-21T12:49:23;1.00;;;1.00;;
14143;SDS011;7152;48.348;10.980;2023-02-21T12:52:12;1.33;;;1.13;;
14143;SDS011;7152;48.348;10.980;2023-02-21T12:57:14;0.73;;;0.73;;
14143;SDS011;7152;48.348;10.980;2023-02-21T13:05:01;1.03;;;0.93;;
14143;SDS011;7152;48.348;10.980;2023-02-21T13:07:50;2.70;;;0.90;;
14143;SDS011;7152;48.348;10.980;2023-02-21T13:10:19;0.90;;;0.80;;
14143;SDS011;7152;48.348;10.980;2023-02-21T13:15:26;2.22;;;1.30;;
14143;SDS011;7152;48.348;10.980;2023-02-21T13:18:03;1.30;;;1.05;;
14143;SDS011;7152;48.348;10.980;2023-02-21T13:20:40;1.55;;;1.00;;
14143;SDS011;7152;48.348;10.980;2023-02-21T13:29:27;1.23;;;1.02;;
14143;SDS011;7152;48.348;10.980;2023-02-21T13:34:34;2.28;;;1.50;;
14143;SDS011;7152;48.348;10.980;2023-02-21T13:37:06;2.65;;;1.98;;
14143;SDS011;7152;48.348;10.980;2023-02-21T13:39:39;2.83;;;1.70;;
14143;SDS011;7152;48.348;10.980;2023-02-21T13:42:25;3.30;;;1.80;;
14143;SDS011;7152;48.348;10.980;2023-02-21T13:44:54;2.03;;;1.73;;
14143;SDS011;7152;48.348;10.980;2023-02-21T13:58:36;2.40;;;1.13;;
14143;SDS011;7152;48.348;10.980;2023-02-21T14:03:53;1.48;;;1.10;;
14143;SDS011;7152;48.348;10.980;2023-02-21T14:11:48;2.58;;;1.10;;
14143;SDS011;7152;48.348;10.980;2023-02-21T14:14:29;3.22;;;1.90;;
14143;SDS011;7152;48.348;10.980;2023-02-21T14:17:06;1.92;;;1.60;;
14143;SDS011;7152;48.348;10.980;2023-02-21T14:24:35;2.38;;;1.48;;
14143;SDS011;7152;48.348;10.980;2023-02-21T14:27:04;2.15;;;1.25;;
14143;SDS011;7152;48.348;10.980;2023-02-21T14:32:24;2.22;;;1.30;;
14143;SDS011;7152;48.348;10.980;2023-02-21T14:38:04;1.45;;;0.98;;
14143;SDS011;7152;48.348;10.980;2023-02-21T14:54:36;0.60;;;0.60;;
14143;SDS011;7152;48.348;10.980;2023-02-21T15:03:28;1.33;;;0.60;;
14143;SDS011;7152;48.348;10.980;2023-02-21T15:08:29;0.97;;;0.63;;
14143;SDS011;7152;48.348;10.980;2023-02-21T15:14:10;1.47;;;0.70;;
14143;SDS011;7152;48.348;10.980;2023-02-21T15:17:00;1.47;;;0.60;;
14143;SDS011;7152;48.348;10.980;2023-02-21T15:19:40;1.13;;;0.70;;
14143;SDS011;7152;48.348;10.980;2023-02-21T15:24:38;0.80;;;0.60;;
14143;SDS011;7152;48.348;10.980;2023-02-21T15:27:08;1.83;;;0.60;;
14143;SDS011;7152;48.348;10.980;2023-02-21T15:29:38;0.97;;;0.80;;
14143;SDS011;7152;48.348;10.980;2023-02-21T15:32:04;0.67;;;0.60;;
14143;SDS011;7152;48.348;10.980;2023-02-21T15:34:36;1.03;;;0.83;;
14143;SDS011;7152;48.348;10.980;2023-02-21T15:37:38;1.73;;;0.90;;
14143;SDS011;7152;48.348;10.980;2023-02-21T15:40:00;1.97;;;0.90;;
14143;SDS011;7152;48.348;10.980;2023-02-21T15:42:35;0.67;;;0.60;;
14143;SDS011;7152;48.348;10.980;2023-02-21T15:45:08;0.70;;;0.70;;
14143;SDS011;7152;48.348;10.980;2023-02-21T15:47:41;1.10;;;0.90;;
14143;SDS011;7152;48.348;10.980;2023-02-21T15:53:10;2.50;;;0.80;;
14143;SDS011;7152;48.348;10.980;2023-02-21T15:55:42;2.80;;;1.20;;
14143;SDS011;7152;48.348;10.980;2023-02-21T15:58:24;0.60;;;0.60;;
14143;SDS011;7152;48.348;10.980;2023-02-21T16:01:07;0.80;;;0.80;;
14143;SDS011;7152;48.348;10.980;2023-02-21T16:06:11;1.50;;;0.80;;
14143;SDS011;7152;48.348;10.980;2023-02-21T16:08:50;1.10;;;1.00;;
14143;SDS011;7152;48.348;10.980;2023-02-21T16:11:16;1.10;;;0.93;;
14143;SDS011;7152;48.348;10.980;2023-02-21T16:13:43;2.10;;;0.80;;
14143;SDS011;7152;48.348;10.980;2023-02-21T16:16:09;1.33;;;0.83;;
14143;SDS011;7152;48.348;10.980;2023-02-21T16:18:35;1.80;;;1.10;;
14143;SDS011;7152;48.348;10.980;2023-02-21T16:21:03;2.10;;;1.10;;
14143;SDS011;7152;48.348;10.980;2023-02-21T16:23:34;1.10;;;1.00;;
14143;SDS011;7152;48.348;10.980;2023-02-21T16:28:33;1.87;;;1.00;;
14143;SDS011;7152;48.348;10.980;2023-02-21T16:31:00;2.27;;;1.20;;
14143;SDS011;7152;48.348;10.980;2023-02-21T16:33:28;1.77;;;1.33;;
14143;SDS011;7152;48.348;10.980;2023-02-21T16:35:54;2.83;;;1.70;;
14143;SDS011;7152;48.348;10.980;2023-02-21T16:38:22;3.50;;;1.83;;
14143;SDS011;7152;48.348;10.980;2023-02-21T16:40:49;1.60;;;1.50;;
14143;SDS011;7152;48.348;10.980;2023-02-21T16:43:16;2.10;;;2.00;;
14143;SDS011;7152;48.348;10.980;2023-02-21T16:45:44;2.30;;;2.10;;
14143;SDS011;7152;48.348;10.980;2023-02-21T16:48:14;2.53;;;2.33;;
14143;SDS011;7152;48.348;10.980;2023-02-21T16:50:46;3.83;;;2.20;;
14143;SDS011;7152;48.348;10.980;2023-02-21T16:53:12;3.50;;;2.40;;
14143;SDS011;7152;48.348;10.980;2023-02-21T16:55:39;4.10;;;2.27;;
14143;SDS011;7152;48.348;10.980;2023-02-21T16:58:07;2.60;;;2.40;;
14143;SDS011;7152;48.348;10.980;2023-02-21T17:00:50;2.63;;;2.17;;
14143;SDS011;7152;48.348;10.980;2023-02-21T17:03:18;3.60;;;2.97;;
14143;SDS011;7152;48.348;10.980;2023-02-21T17:05:44;2.97;;;2.63;;
14143;SDS011;7152;48.348;10.980;2023-02-21T17:08:10;2.53;;;2.10;;
14143;SDS011;7152;48.348;10.980;2023-02-21T17:10:36;2.33;;;2.10;;
14143;SDS011;7152;48.348;10.980;2023-02-21T17:13:01;3.20;;;2.30;;
14143;SDS011;7152;48.348;10.980;2023-02-21T17:15:27;2.83;;;2.37;;
14143;SDS011;7152;48.348;10.980;2023-02-21T17:17:56;2.90;;;2.70;;
14143;SDS011;7152;48.348;10.980;2023-02-21T17:20:22;7.07;;;2.80;;
14143;SDS011;7152;48.348;10.980;2023-02-21T17:22:48;4.40;;;3.00;;
14143;SDS011;7152;48.348;10.980;2023-02-21T17:25:15;4.00;;;3.23;;
14143;SDS011;7152;48.348;10.980;2023-02-21T17:27:43;4.33;;;2.77;;
14143;SDS011;7152;48.348;10.980;2023-02-21T17:30:09;4.93;;;3.33;;
14143;SDS011;7152;48.348;10.980;2023-02-21T17:32:36;4.57;;;4.03;;
14143;SDS011;7152;48.348;10.980;2023-02-21T17:35:02;4.97;;;4.30;;
14143;SDS011;7152;48.348;10.980;2023-02-21T17:37:28;4.63;;;4.00;;
14143;SDS011;7152;48.348;10.980;2023-02-21T17:39:54;6.20;;;5.13;;
14143;SDS011;7152;48.348;10.980;2023-02-21T17:42:20;7.70;;;4.90;;
14143;SDS011;7152;48.348;10.980;2023-02-21T17:44:47;6.63;;;4.97;;
14143;SDS011;7152;48.348;10.980;2023-02-21T17:47:15;5.70;;;4.57;;
14143;SDS011;7152;48.348;10.980;2023-02-21T17:49:43;6.67;;;4.80;;
14143;SDS011;7152;48.348;10.980;2023-02-21T17:52:11;4.93;;;4.27;;
14143;SDS011;7152;48.348;10.980;2023-02-21T17:54:39;4.40;;;4.00;;
14143;SDS011;7152;48.348;10.980;2023-02-21T17:57:05;5.87;;;4.50;;
14143;SDS011;7152;48.348;10.980;2023-02-21T17:59:33;4.97;;;3.90;;
14143;SDS011;7152;48.348;10.980;2023-02-21T18:01:59;3.63;;;3.33;;
14143;SDS011;7152;48.348;10.980;2023-02-21T18:04:24;4.07;;;3.23;;
14143;SDS011;7152;48.348;10.980;2023-02-21T18:06:50;3.50;;;3.20;;
14143;SDS011;7152;48.348;10.980;2023-02-21T18:09:16;4.83;;;3.23;;
14143;SDS011;7152;48.348;10.980;2023-02-21T18:11:46;4.53;;;2.90;;
14143;SDS011;7152;48.348;10.980;2023-02-21T18:14:13;5.97;;;3.90;;
14143;SDS011;7152;48.348;10.980;2023-02-21T18:16:39;5.37;;;4.07;;